Time;durP1;ratioP1;P1;durP2;ratioP2;P2;SDS_P1;SDS_P2;PMS_P1;PMS_P2;Temp;Humidity;BMP_temperature;BMP_pressure;BME280_temperature;BME280_humidity;BME280_pressure;Samples;Min_cycle;Max_cycle;Signal;HPM_P1;HPM_P2
2021/10/23 00:01:56;;;;;;;33.02;21.45;;;;;;;12.81;61.41;100747.58;1744897;81;20920;-78
2021/10/23 00:04:23;;;;;;;28.57;20.80;;;;;;;12.77;61.38;100742.14;1744844;82;20924;-79
2021/10/23 00:06:50;;;;;;;31.27;20.95;;;;;;;12.73;61.51;100742.81;1744624;82;21403;-79
2021/10/23 00:09:16;;;;;;;31.45;21.35;;;;;;;12.72;61.58;100735.04;1752426;80;21441;-77
2021/10/23 00:11:45;;;;;;;29.30;20.45;;;;;;;12.68;61.73;100729.61;1757881;81;20888;-78
2021/10/23 00:14:12;;;;;;;31.37;20.32;;;;;;;12.62;61.80;100717.69;1758190;80;21512;-77
2021/10/23 00:16:40;;;;;;;32.10;21.25;;;;;;;12.59;61.85;100727.95;1757992;81;20959;-77
2021/10/23 00:19:08;;;;;;;31.55;21.33;;;;;;;12.54;61.87;100716.91;1757868;81;21424;-78
2021/10/23 00:21:34;;;;;;;34.70;22.40;;;;;;;12.49;62.03;100712.88;1758088;81;21468;-77
2021/10/23 00:24:01;;;;;;;27.65;20.77;;;;;;;12.44;62.08;100715.81;1758212;80;20921;-78
2021/10/23 00:26:28;;;;;;;33.67;22.62;;;;;;;12.40;62.27;100699.38;1757905;81;21505;-76
2021/10/23 00:28:55;;;;;;;32.30;21.65;;;;;;;12.38;62.38;100709.19;1758178;81;21327;-76
2021/10/23 00:31:22;;;;;;;36.23;22.13;;;;;;;12.35;62.50;100700.65;1757976;80;20912;-76
2021/10/23 00:33:49;;;;;;;28.40;20.90;;;;;;;12.35;62.52;100695.39;1758235;80;21805;-75
2021/10/23 00:36:16;;;;;;;29.25;20.60;;;;;;;12.32;62.67;100693.81;1759024;81;21354;-76
2021/10/23 00:38:43;;;;;;;28.65;19.98;;;;;;;12.32;62.75;100699.07;1758271;81;20944;-74
2021/10/23 00:41:10;;;;;;;29.12;19.62;;;;;;;12.34;62.79;100701.58;1758331;81;20936;-77
2021/10/23 00:43:38;;;;;;;29.23;20.05;;;;;;;12.35;62.74;100699.34;1757929;81;20916;-77
2021/10/23 00:46:05;;;;;;;30.32;21.35;;;;;;;12.34;62.72;100698.95;1758321;81;21358;-76
2021/10/23 00:48:33;;;;;;;34.95;20.77;;;;;;;12.33;62.71;100695.96;1757916;81;20920;-75
2021/10/23 00:51:00;;;;;;;29.07;18.82;;;;;;;12.30;62.77;100694.38;1758242;81;20944;-77
2021/10/23 00:53:29;;;;;;;28.85;20.62;;;;;;;12.26;62.85;100688.95;1758009;81;21335;-76
2021/10/23 00:55:56;;;;;;;26.77;18.45;;;;;;;12.22;62.95;100689.61;1757929;81;20916;-77
2021/10/23 00:58:23;;;;;;;26.65;19.57;;;;;;;12.17;63.06;100679.05;1758320;81;21479;-77
2021/10/23 01:00:50;;;;;;;27.93;18.48;;;;;;;12.12;63.23;100684.61;1757910;81;21020;-76
2021/10/23 01:03:17;;;;;;;27.20;19.07;;;;;;;12.09;63.38;100680.84;1757952;81;20896;-78
2021/10/23 01:05:44;;;;;;;27.98;18.45;;;;;;;12.06;63.53;100689.42;1757941;81;21327;-78
2021/10/23 01:08:13;;;;;;;22.73;17.17;;;;;;;12.05;63.67;100694.28;1757912;81;20876;-77
2021/10/23 01:10:41;;;;;;;26.73;17.35;;;;;;;12.04;63.79;100707.91;1752467;81;21181;-77
2021/10/23 01:13:08;;;;;;;28.30;18.00;;;;;;;12.03;63.86;100708.86;1752825;80;20928;-76
2021/10/23 01:15:37;;;;;;;24.75;17.77;;;;;;;12.02;63.87;100701.91;1752548;82;20936;-77
2021/10/23 01:18:06;;;;;;;24.98;17.12;;;;;;;12.02;63.90;100712.42;1752789;82;20920;-77
2021/10/23 01:20:34;;;;;;;23.22;15.98;;;;;;;12.00;63.89;100708.56;1752505;82;20928;-76
2021/10/23 01:23:01;;;;;;;30.48;18.15;;;;;;;11.98;63.96;100716.19;1753026;80;21692;-77
2021/10/23 01:25:29;;;;;;;23.02;15.68;;;;;;;11.94;63.98;100714.24;1752517;82;20873;-76
2021/10/23 01:28:00;;;;;;;19.35;15.35;;;;;;;11.90;64.06;100697.45;1752489;82;20860;-77
2021/10/23 01:30:27;;;;;;;23.18;15.03;;;;;;;11.87;64.19;100692.34;1752399;81;21383;-76
2021/10/23 01:32:54;;;;;;;20.35;14.18;;;;;;;11.82;64.41;100684.77;1752953;82;20881;-75
2021/10/23 01:35:23;;;;;;;19.30;14.23;;;;;;;11.79;64.58;100688.44;1752451;82;21101;-75
2021/10/23 01:37:50;;;;;;;20.10;14.20;;;;;;;11.80;64.79;100689.27;1752440;82;21003;-76
2021/10/23 01:40:29;;;;;;;19.73;15.48;;;;;;;11.81;64.89;100694.44;1752850;80;20890;-75
2021/10/23 01:42:56;;;;;;;22.85;15.63;;;;;;;11.82;64.96;100688.22;1752860;80;20964;-76
2021/10/23 01:45:22;;;;;;;20.72;15.70;;;;;;;11.86;65.00;100690.67;1752626;82;20963;-76
2021/10/23 01:47:50;;;;;;;22.00;16.30;;;;;;;11.88;64.99;100688.83;1752433;82;21035;-76
2021/10/23 01:50:20;;;;;;;23.30;16.20;;;;;;;11.89;64.98;100687.87;1752816;80;21362;-76
2021/10/23 01:52:47;;;;;;;23.15;15.80;;;;;;;11.89;65.02;100688.70;1752665;82;20888;-76
2021/10/23 01:55:15;;;;;;;20.23;14.58;;;;;;;11.87;65.07;100693.19;1752931;82;21421;-75
2021/10/23 01:57:42;;;;;;;21.77;14.70;;;;;;;11.87;65.07;100687.92;1752504;80;21504;-76
2021/10/23 02:00:12;;;;;;;21.25;13.83;;;;;;;11.85;65.11;100683.27;1752423;80;21508;-76
2021/10/23 02:02:40;;;;;;;17.73;13.20;;;;;;;11.81;65.23;100683.92;1752437;80;20952;-76
2021/10/23 02:05:08;;;;;;;19.57;14.68;;;;;;;11.79;65.34;100677.09;1752449;82;20917;-77
2021/10/23 02:07:36;;;;;;;18.55;14.85;;;;;;;11.77;65.49;100680.28;1752384;80;20900;-76
2021/10/23 02:10:06;;;;;;;20.30;13.72;;;;;;;11.77;65.64;100693.42;1747280;82;20873;-75
2021/10/23 02:12:34;;;;;;;23.15;15.13;;;;;;;11.75;65.68;100691.36;1744660;81;21818;-76
2021/10/23 02:15:03;;;;;;;19.17;14.83;;;;;;;11.75;65.71;100698.77;1744659;81;20905;-76
2021/10/23 02:17:29;;;;;;;16.40;13.53;;;;;;;11.74;65.68;100699.72;1744586;82;20980;-77
2021/10/23 02:19:57;;;;;;;20.10;15.15;;;;;;;11.73;65.74;100697.17;1744565;80;20996;-76
2021/10/23 02:22:24;;;;;;;19.20;13.43;;;;;;;11.74;65.78;100702.82;1744593;81;20937;-76
2021/10/23 02:24:51;;;;;;;20.05;13.65;;;;;;;11.74;65.84;100697.57;1744717;80;21883;-75
2021/10/23 02:27:18;;;;;;;18.77;14.13;;;;;;;11.74;65.97;100705.45;1744392;82;21007;-77
2021/10/23 02:29:45;;;;;;;21.70;15.25;;;;;;;11.76;66.02;100703.09;1744723;81;20834;-76
2021/10/23 02:32:12;;;;;;;21.90;15.10;;;;;;;11.80;66.13;100707.66;1744933;81;21085;-76
2021/10/23 02:34:39;;;;;;;16.50;14.43;;;;;;;11.81;66.17;100707.58;1744446;81;20846;-76
2021/10/23 02:37:06;;;;;;;19.07;14.33;;;;;;;11.85;66.20;100709.55;1744852;80;21528;-76
2021/10/23 02:39:35;;;;;;;20.65;15.88;;;;;;;11.86;66.17;100708.59;1744548;82;21395;-76
2021/10/23 02:42:02;;;;;;;23.10;15.30;;;;;;;11.86;66.20;100715.16;1744607;82;20980;-77
2021/10/23 02:44:29;;;;;;;23.05;17.92;;;;;;;11.83;66.25;100716.69;1744521;82;20901;-77
2021/10/23 02:46:56;;;;;;;18.07;15.35;;;;;;;11.80;66.37;100723.42;1744443;81;20854;-76
2021/10/23 02:49:23;;;;;;;20.90;14.07;;;;;;;11.77;66.57;100717.90;1744543;82;21502;-77
2021/10/23 02:51:50;;;;;;;22.30;15.32;;;;;;;11.76;66.71;100720.17;1744468;81;21510;-76
2021/10/23 02:54:16;;;;;;;21.73;15.40;;;;;;;11.75;66.88;100725.03;1744573;81;20932;-77
2021/10/23 02:56:43;;;;;;;19.48;15.88;;;;;;;11.74;67.17;100719.90;1744778;82;20921;-75
2021/10/23 02:59:10;;;;;;;21.87;16.07;;;;;;;11.72;67.40;100719.15;1744528;81;20901;-76
2021/10/23 03:01:37;;;;;;;21.85;16.20;;;;;;;11.70;67.55;100710.05;1744713;81;21999;-77
2021/10/23 03:04:05;;;;;;;23.77;16.73;;;;;;;11.69;67.71;100713.59;1744319;82;20956;-77
2021/10/23 03:06:32;;;;;;;23.67;17.80;;;;;;;11.68;67.85;100707.14;1744761;82;20889;-77
2021/10/23 03:08:58;;;;;;;21.68;17.67;;;;;;;11.64;68.00;100714.36;1744600;82;21446;-76
2021/10/23 03:11:25;;;;;;;23.98;16.60;;;;;;;11.62;68.14;100708.36;1744606;81;20992;-76
2021/10/23 03:13:51;;;;;;;23.60;16.40;;;;;;;11.60;68.27;100707.61;1744612;81;21756;-76
2021/10/23 03:16:19;;;;;;;26.73;17.80;;;;;;;11.59;68.55;100707.25;1744406;81;20858;-77
2021/10/23 03:18:45;;;;;;;22.87;17.17;;;;;;;11.58;68.73;100706.86;1744496;82;20928;-76
2021/10/23 03:21:12;;;;;;;21.70;17.27;;;;;;;11.59;68.88;100707.25;1744490;82;20980;-78
2021/10/23 03:23:39;;;;;;;27.48;19.20;;;;;;;11.60;69.00;100701.91;1744573;82;20889;-78
2021/10/23 03:26:06;;;;;;;28.10;19.32;;;;;;;11.61;69.12;100699.64;1744523;81;21134;-78
2021/10/23 03:28:34;;;;;;;29.35;19.50;;;;;;;11.60;69.13;100696.66;1744411;81;20905;-77
2021/10/23 03:31:01;;;;;;;25.52;19.57;;;;;;;11.60;69.21;100705.84;1744682;82;20936;-76
2021/10/23 03:33:28;;;;;;;22.42;17.67;;;;;;;11.61;69.22;100709.31;1744712;82;20936;-77
2021/10/23 03:35:56;;;;;;;24.90;18.80;;;;;;;11.61;69.23;100719.34;1744641;81;21355;-77
2021/10/23 03:38:22;;;;;;;24.40;17.55;;;;;;;11.64;69.33;100716.16;1744673;82;22100;-78
2021/10/23 03:40:49;;;;;;;23.70;18.82;;;;;;;11.64;69.62;100714.36;1744683;81;20909;-79
2021/10/23 03:43:15;;;;;;;21.55;17.73;;;;;;;11.64;69.73;100708.27;1744903;82;20873;-77
2021/10/23 03:45:44;;;;;;;29.07;20.20;;;;;;;11.64;69.82;100697.77;1744669;81;20932;-77
2021/10/23 03:48:11;;;;;;;24.27;19.98;;;;;;;11.66;69.86;100703.77;1744656;82;20960;-78
2021/10/23 03:50:38;;;;;;;22.95;20.45;;;;;;;11.70;69.84;100715.77;1744764;82;21139;-78
2021/10/23 03:53:05;;;;;;;30.50;19.82;;;;;;;11.72;69.76;100715.21;1744841;82;20877;-78
2021/10/23 03:55:34;;;;;;;24.12;20.48;;;;;;;11.72;69.71;100721.30;1744678;80;20909;-77
2021/10/23 03:58:01;;;;;;;24.63;19.80;;;;;;;11.76;69.69;100720.17;1744680;81;20991;-78
2021/10/23 04:00:28;;;;;;;24.80;18.57;;;;;;;11.79;69.74;100719.13;1744596;82;21417;-78
2021/10/23 04:02:55;;;;;;;37.93;23.32;;;;;;;11.81;69.83;100714.63;1744937;82;21136;-77
2021/10/23 04:05:22;;;;;;;33.25;23.47;;;;;;;11.82;69.89;100711.87;1744635;81;20983;-77
2021/10/23 04:07:49;;;;;;;34.33;25.68;;;;;;;11.84;69.98;100726.23;1744898;82;20857;-78
2021/10/23 04:10:16;;;;;;;27.58;20.50;;;;;;;11.87;69.92;100731.28;1744482;82;20944;-78
2021/10/23 04:12:45;;;;;;;25.77;20.23;;;;;;;11.89;69.78;100729.44;1744559;82;20905;-77
2021/10/23 04:15:12;;;;;;;24.43;19.48;;;;;;;11.90;69.69;100739.50;1744735;82;21099;-78
2021/10/23 04:17:38;;;;;;;24.60;19.23;;;;;;;11.89;69.58;100748.31;1744908;82;20924;-78
2021/10/23 04:20:07;;;;;;;26.05;18.05;;;;;;;11.89;69.55;100744.38;1744685;82;20940;-77
2021/10/23 04:22:34;;;;;;;22.62;17.48;;;;;;;11.90;69.60;100751.33;1744612;81;21519;-77
2021/10/23 04:25:02;;;;;;;21.70;18.77;;;;;;;11.90;69.63;100752.16;1744524;81;20924;-78
2021/10/23 04:27:28;;;;;;;26.15;18.90;;;;;;;11.91;69.69;100756.95;1744631;82;21965;-78
2021/10/23 04:29:55;;;;;;;25.80;20.65;;;;;;;11.94;69.67;100758.05;1744595;81;20949;-77
2021/10/23 04:32:22;;;;;;;24.50;19.70;;;;;;;11.95;69.55;100752.70;1744840;82;21430;-78
2021/10/23 04:34:51;;;;;;;31.17;22.07;;;;;;;11.95;69.50;100753.19;1744553;81;21456;-78
2021/10/23 04:37:17;;;;;;;27.13;20.60;;;;;;;11.93;69.45;100762.95;1744858;80;21838;-78
2021/10/23 04:39:46;;;;;;;42.17;31.23;;;;;;;11.90;69.47;100761.36;1744707;81;21160;-77
2021/10/23 04:42:13;;;;;;;35.03;26.93;;;;;;;11.89;69.50;100770.17;1744587;82;20940;-77
2021/10/23 04:44:40;;;;;;;36.58;26.57;;;;;;;11.89;69.53;100768.86;1744851;82;20881;-77
2021/10/23 04:47:08;;;;;;;30.05;22.75;;;;;;;11.88;69.63;100775.06;1744521;80;20893;-77
2021/10/23 04:49:35;;;;;;;40.40;23.77;;;;;;;11.92;69.70;100780.51;1744613;80;20874;-77
2021/10/23 04:52:03;;;;;;;29.32;20.15;;;;;;;11.95;69.76;100790.81;1744442;81;21148;-76
2021/10/23 04:54:30;;;;;;;28.50;19.87;;;;;;;11.99;69.72;100782.28;1744733;81;20885;-76
2021/10/23 04:56:56;;;;;;;27.85;20.88;;;;;;;12.01;69.60;100777.77;1744558;81;20928;-77
2021/10/23 04:59:24;;;;;;;32.00;20.80;;;;;;;12.03;69.47;100779.36;1744605;81;21371;-77
2021/10/23 05:01:50;;;;;;;28.67;20.77;;;;;;;12.06;69.38;100792.77;1744873;81;20964;-77
2021/10/23 05:04:17;;;;;;;25.35;20.55;;;;;;;12.07;69.28;100797.55;1744697;82;21133;-76
2021/10/23 05:06:44;;;;;;;32.85;18.90;;;;;;;12.06;69.22;100803.77;1744479;82;20944;-79
2021/10/23 05:09:10;;;;;;;27.90;19.70;;;;;;;12.05;69.23;100809.95;1744845;80;20936;-78
2021/10/23 05:11:37;;;;;;;25.45;19.87;;;;;;;12.02;69.30;100811.83;1744502;81;21414;-77
2021/10/23 05:14:04;;;;;;;25.37;20.80;;;;;;;12.02;69.39;100822.34;1745113;82;20944;-78
2021/10/23 05:16:31;;;;;;;29.63;21.02;;;;;;;12.03;69.41;100822.73;1744557;82;21369;-77
2021/10/23 05:18:58;;;;;;;29.07;21.02;;;;;;;12.06;69.34;100824.80;1744983;82;20842;-78
2021/10/23 05:21:26;;;;;;;32.30;25.68;;;;;;;12.08;69.32;100836.05;1744986;82;20862;-78
2021/10/23 05:23:56;;;;;;;45.98;33.18;;;;;;;12.11;69.20;100850.31;1744856;82;20897;-77
2021/10/23 05:26:21;;;;;;;38.13;26.00;;;;;;;12.13;69.06;100851.90;1744543;81;21447;-77
2021/10/23 05:28:48;;;;;;;48.02;31.52;;;;;;;12.15;68.96;100861.02;1745165;80;21093;-78
2021/10/23 05:31:15;;;;;;;49.05;32.85;;;;;;;12.15;68.86;100871.53;1744572;81;21420;-77
2021/10/23 05:33:42;;;;;;;64.82;39.67;;;;;;;12.16;68.79;100862.69;1744822;81;20952;-77
2021/10/23 05:36:09;;;;;;;59.30;34.95;;;;;;;12.19;68.77;100875.66;1744570;81;20893;-78
2021/10/23 05:38:36;;;;;;;39.55;26.70;;;;;;;12.22;68.76;100872.83;1745923;82;20928;-76
2021/10/23 05:41:03;;;;;;;39.60;25.15;;;;;;;12.25;68.75;100868.71;1745274;81;21505;-78
2021/10/23 05:43:30;;;;;;;38.15;25.10;;;;;;;12.31;68.66;100872.72;1744598;82;21018;-76
2021/10/23 05:45:57;;;;;;;38.67;23.85;;;;;;;12.37;68.46;100865.28;1744551;82;20925;-78
2021/10/23 05:48:24;;;;;;;39.27;22.75;;;;;;;12.43;68.22;100866.70;1744544;81;21406;-77
2021/10/23 05:50:51;;;;;;;34.38;25.57;;;;;;;12.47;67.96;100849.75;1745022;81;21062;-78
2021/10/23 05:53:18;;;;;;;38.35;26.57;;;;;;;12.48;67.95;100863.30;1744539;80;21144;-78
2021/10/23 05:55:46;;;;;;;40.43;25.25;;;;;;;12.48;67.75;100899.28;1744695;82;20849;-77
2021/10/23 05:58:12;;;;;;;35.60;23.70;;;;;;;12.47;67.79;100900.20;1744626;82;20988;-76
2021/10/23 06:00:48;;;;;;;42.30;26.97;;;;;;;12.46;67.78;100891.48;1744905;82;20861;-77
2021/10/23 06:03:18;;;;;;;39.75;26.37;;;;;;;12.46;67.77;100882.27;1744089;81;20905;-77
2021/10/23 06:05:37;;;;;;;48.28;27.27;;;;;;;12.48;67.79;100884.33;1744394;81;21730;-77
2021/10/23 06:08:04;;;;;;;42.05;26.45;;;;;;;12.53;67.72;100884.04;1744666;82;20968;-78
2021/10/23 06:10:33;;;;;;;46.95;29.40;;;;;;;12.58;67.60;100878.00;1744435;81;20949;-77
2021/10/23 06:13:00;;;;;;;56.63;31.10;;;;;;;12.65;67.34;100876.69;1744601;82;20944;-79
2021/10/23 06:15:26;;;;;;;58.73;32.90;;;;;;;12.68;67.03;100879.11;1744527;80;21307;-77
2021/10/23 06:17:55;;;;;;;57.03;34.10;;;;;;;12.72;66.82;100887.19;1744493;82;21703;-78
2021/10/23 06:20:23;;;;;;;43.50;29.87;;;;;;;12.74;66.65;100887.06;1744465;81;20881;-78
2021/10/23 06:22:53;;;;;;;49.42;27.48;;;;;;;12.75;66.55;100910.66;1744497;80;20924;-79
2021/10/23 06:25:21;;;;;;;41.08;26.75;;;;;;;12.77;66.49;100896.09;1744416;82;21044;-78
2021/10/23 06:27:48;;;;;;;48.08;28.95;;;;;;;12.78;66.40;100896.00;1744594;82;21411;-79
2021/10/23 06:30:15;;;;;;;45.23;27.55;;;;;;;12.79;66.39;100894.20;1744317;82;21121;-79
2021/10/23 06:32:53;;;;;;;41.53;28.10;;;;;;;12.82;66.34;100886.10;1744510;82;20893;-80
2021/10/23 06:35:20;;;;;;;37.65;23.80;;;;;;;12.84;66.09;100885.05;1744666;81;21106;-79
2021/10/23 06:37:47;;;;;;;36.73;24.85;;;;;;;12.84;65.85;100878.95;1744532;82;20897;-80
2021/10/23 06:40:14;;;;;;;37.05;25.97;;;;;;;12.84;65.76;100870.58;1744820;82;20924;-81
2021/10/23 06:42:41;;;;;;;34.08;22.77;;;;;;;12.86;65.69;100884.48;1744953;82;21086;-78
2021/10/23 06:45:10;;;;;;;33.02;21.55;;;;;;;12.89;65.59;100885.23;1744461;82;20936;-79
2021/10/23 06:47:38;;;;;;;38.20;23.38;;;;;;;12.91;65.56;100884.66;1744934;80;20984;-79
2021/10/23 06:50:08;;;;;;;29.30;20.12;;;;;;;12.92;65.51;100899.05;1744385;82;20929;-80
2021/10/23 06:52:36;;;;;;;33.53;20.27;;;;;;;12.96;65.39;100887.83;1744456;81;20889;-80
2021/10/23 06:55:04;;;;;;;32.75;21.57;;;;;;;13.00;65.31;100883.57;1744880;82;21131;-80
2021/10/23 06:57:32;;;;;;;36.65;22.32;;;;;;;13.09;65.14;100893.13;1745038;82;20885;-79
2021/10/23 06:59:59;;;;;;;41.77;26.60;;;;;;;13.17;65.15;100873.25;1744332;82;20928;-79
2021/10/23 07:02:27;;;;;;;43.28;25.37;;;;;;;13.28;64.69;100880.47;1744426;80;21003;-79
2021/10/23 07:04:55;;;;;;;39.45;28.02;;;;;;;13.37;64.11;100870.63;1744559;82;21315;-79
2021/10/23 07:07:23;;;;;;;33.88;24.70;;;;;;;13.46;63.87;100869.99;1744849;82;21107;-81
2021/10/23 07:09:50;;;;;;;38.23;25.45;;;;;;;13.57;63.49;100864.00;1744407;82;20944;-79
2021/10/23 07:12:18;;;;;;;35.00;23.90;;;;;;;13.67;62.68;100873.41;1756111;81;20884;-79
2021/10/23 07:14:46;;;;;;;35.38;24.02;;;;;;;13.74;62.04;100864.16;1757716;81;20935;-79
2021/10/23 07:17:15;;;;;;;36.80;25.45;;;;;;;13.82;61.96;100882.06;1757885;81;20975;-79
2021/10/23 07:19:42;;;;;;;36.85;27.30;;;;;;;13.89;61.94;100908.36;1757898;81;21252;-80
2021/10/23 07:25:13;;;;;;;49.65;31.40;;;;;;;14.02;61.67;100897.81;1883988;75;22169;-79
2021/10/23 07:27:40;;;;;;;41.13;29.30;;;;;;;13.99;61.60;100906.78;1860935;77;21432;-79
2021/10/23 07:30:09;;;;;;;46.00;30.52;;;;;;;13.99;61.62;100911.22;1860820;77;21135;-78
2021/10/23 07:32:40;;;;;;;48.65;31.93;;;;;;;13.99;61.66;100909.42;1860690;76;21440;-80
2021/10/23 07:35:08;;;;;;;46.02;29.55;;;;;;;13.98;61.67;100908.20;1860756;76;20835;-77
2021/10/23 07:37:36;;;;;;;46.30;29.23;;;;;;;13.99;61.62;100908.10;1860570;76;20915;-77
2021/10/23 07:40:06;;;;;;;49.03;29.27;;;;;;;14.02;61.39;100907.05;1860776;77;21367;-77
2021/10/23 07:42:33;;;;;;;44.67;28.98;;;;;;;14.04;61.09;100915.21;1860729;76;21075;-77
2021/10/23 07:45:02;;;;;;;43.13;26.80;;;;;;;14.06;60.99;100913.31;1860669;77;21376;-79
2021/10/23 07:47:30;;;;;;;39.95;25.60;;;;;;;14.10;60.55;100924.02;1860779;77;20851;-78
2021/10/23 07:49:58;;;;;;;40.00;27.80;;;;;;;14.13;59.83;100928.23;1860979;77;20918;-78
2021/10/23 07:52:25;;;;;;;41.10;26.93;;;;;;;14.16;59.53;100928.48;1860712;77;21321;-80
2021/10/23 07:54:54;;;;;;;48.15;27.58;;;;;;;14.21;58.38;100940.90;1860581;77;20856;-76
2021/10/23 07:57:21;;;;;;;46.10;30.20;;;;;;;14.21;58.38;100940.90;1860948;77;20844;-77
2021/10/23 07:59:48;;;;;;;67.87;43.10;;;;;;;14.24;58.46;100941.51;1860689;77;20919;-78
2021/10/23 08:02:15;;;;;;;54.42;37.35;;;;;;;14.26;58.63;100938.77;1860552;77;20895;-76
2021/10/23 08:04:44;;;;;;;62.15;37.30;;;;;;;14.29;58.50;100931.50;1860742;77;20832;-77
2021/10/23 08:07:12;;;;;;;53.68;41.00;;;;;;;14.30;58.37;100938.45;1860671;77;20840;-82
2021/10/23 08:09:39;;;;;;;50.25;35.28;;;;;;;14.39;58.54;100922.92;1860801;76;21086;-84
2021/10/23 08:12:08;;;;;;;51.00;33.83;;;;;;;14.43;57.46;100922.59;1860803;77;20918;-78
2021/10/23 08:14:36;;;;;;;46.65;31.42;;;;;;;14.43;57.46;100922.59;1860803;77;20903;-80
2021/10/23 08:17:04;;;;;;;43.63;28.38;;;;;;;14.58;57.39;100916.70;1860637;77;21333;-82
2021/10/23 08:19:31;;;;;;;45.25;27.35;;;;;;;14.58;57.39;100916.70;1861192;76;21140;-80
2021/10/23 08:21:59;;;;;;;49.70;26.07;;;;;;;14.66;56.74;100920.97;1860220;76;20923;-77
2021/10/23 08:24:26;;;;;;;42.40;26.73;;;;;;;14.74;56.48;100921.74;1859715;77;20923;-80
2021/10/23 08:26:54;;;;;;;37.80;24.05;;;;;;;14.82;56.06;100918.53;1860576;76;20876;-80
2021/10/23 08:29:21;;;;;;;41.75;25.95;;;;;;;14.89;55.57;100910.03;1860863;77;20875;-80
2021/10/23 08:31:48;;;;;;;45.10;24.40;;;;;;;14.93;55.10;100902.25;1860712;77;22107;-80
2021/10/23 08:34:15;;;;;;;50.43;26.17;;;;;;;14.96;54.58;100903.82;1860788;77;20919;-80
2021/10/23 08:36:42;;;;;;;48.10;27.10;;;;;;;14.98;54.34;100912.96;1860193;77;20899;-79
2021/10/23 08:39:09;;;;;;;50.08;27.02;;;;;;;15.00;54.54;100919.81;1859996;76;20915;-80
2021/10/23 08:41:37;;;;;;;45.50;24.37;;;;;;;15.02;54.69;100932.42;1860274;77;21120;-77
2021/10/23 08:44:07;;;;;;;40.78;23.27;;;;;;;15.06;54.68;100924.65;1860160;77;21865;-86
2021/10/23 08:46:36;;;;;;;44.63;24.63;;;;;;;15.13;53.71;100925.88;1860432;76;20933;-79
2021/10/23 08:49:03;;;;;;;40.85;24.47;;;;;;;15.13;53.71;100925.88;1860415;77;20863;-81
2021/10/23 08:51:32;;;;;;;43.20;24.35;;;;;;;15.18;53.70;100929.48;1860027;76;20903;-81
2021/10/23 08:53:59;;;;;;;40.88;21.42;;;;;;;15.24;52.80;100929.52;1860310;76;21036;-80
2021/10/23 08:56:26;;;;;;;34.83;19.20;;;;;;;15.33;51.88;100932.31;1860048;76;21583;-83
2021/10/23 08:58:53;;;;;;;28.80;17.60;;;;;;;15.33;51.88;100932.31;1859958;77;20973;-80
2021/10/23 09:01:22;;;;;;;33.75;16.82;;;;;;;15.39;51.43;100931.51;1859644;77;20884;-79
2021/10/23 09:03:49;;;;;;;32.08;17.42;;;;;;;15.49;50.62;100937.77;1859867;76;21488;-78
2021/10/23 09:06:35;;;;;;;32.28;18.60;;;;;;;15.49;50.62;100937.77;1860564;77;21006;-77
2021/10/23 09:09:11;;;;;;;39.53;19.42;;;;;;;15.53;50.35;100934.77;1859966;76;21805;-76
2021/10/23 09:11:43;;;;;;;38.75;22.70;;;;;;;15.60;50.16;100937.79;1860017;76;20926;-77
2021/10/23 09:14:38;;;;;;;52.88;25.48;;;;;;;15.68;49.63;100925.33;1859979;77;20876;-75
2021/10/23 09:17:10;;;;;;;40.70;20.97;;;;;;;15.74;49.54;100931.02;1859732;76;21388;-76
2021/10/23 09:19:46;;;;;;;40.90;20.10;;;;;;;15.81;48.66;100930.06;1860070;77;20923;-77
2021/10/23 09:22:33;;;;;;;33.90;19.57;;;;;;;15.85;48.27;100925.36;1859449;76;20905;-76
2021/10/23 09:25:30;;;;;;;34.55;18.27;;;;;;;15.89;47.85;100924.17;1857951;76;20893;-76
2021/10/23 09:28:11;;;;;;;36.63;19.48;;;;;;;15.94;47.12;100930.80;1858385;77;20972;-76
2021/10/23 09:30:50;;;;;;;33.42;17.27;;;;;;;16.01;46.67;100925.01;1858048;77;20905;-77
2021/10/23 09:33:25;;;;;;;33.48;16.87;;;;;;;16.14;46.14;100930.56;1858457;77;20925;-76
2021/10/23 09:35:55;;;;;;;27.85;16.65;;;;;;;16.27;45.95;100927.77;1858118;77;21194;-77
2021/10/23 09:38:30;;;;;;;30.45;17.52;;;;;;;16.39;45.15;100921.17;1858048;77;20904;-77
2021/10/23 09:41:12;;;;;;;36.15;18.42;;;;;;;16.49;44.87;100922.94;1858379;77;21398;-74
2021/10/23 09:43:40;;;;;;;33.13;17.42;;;;;;;16.56;44.24;100927.26;1858343;76;28665;-76
2021/10/23 09:46:11;;;;;;;38.65;18.98;;;;;;;16.59;44.27;100928.36;1858216;77;20861;-77
2021/10/23 09:48:48;;;;;;;36.98;18.23;;;;;;;16.63;44.09;100931.58;1858167;76;21434;-77
2021/10/23 09:51:38;;;;;;;32.25;18.17;;;;;;;16.65;43.73;100929.19;1857788;77;21327;-77
2021/10/23 09:54:05;;;;;;;32.28;16.70;;;;;;;16.68;44.01;100938.20;1858251;77;20908;-77
2021/10/23 09:56:37;;;;;;;29.35;16.23;;;;;;;16.68;43.88;100935.55;1858119;77;20925;-77
2021/10/23 09:59:10;;;;;;;27.60;17.33;;;;;;;16.68;43.75;100940.84;1858501;77;20861;-77
2021/10/23 10:01:42;;;;;;;30.88;16.32;;;;;;;16.68;43.28;100932.91;1858411;77;21767;-80
2021/10/23 10:04:15;;;;;;;29.63;18.60;;;;;;;16.66;43.55;100928.21;1858318;76;20928;-79
2021/10/23 10:06:46;;;;;;;32.73;17.92;;;;;;;16.65;43.55;100918.60;1858660;77;21014;-77
2021/10/23 10:09:18;;;;;;;34.10;22.30;;;;;;;16.66;43.48;100916.78;1858208;77;20948;-77
2021/10/23 10:11:48;;;;;;;38.20;21.25;;;;;;;16.67;43.82;100927.23;1858580;76;20826;-77
2021/10/23 10:14:17;;;;;;;46.08;24.92;;;;;;;16.73;44.16;100925.91;1858176;77;20874;-80
2021/10/23 10:16:47;;;;;;;53.08;37.28;;;;;;;16.82;44.17;100928.33;1858236;76;20921;-79
2021/10/23 10:19:18;;;;;;;41.48;26.20;;;;;;;16.89;44.17;100919.74;1828213;77;21023;-78
2021/10/23 10:21:45;;;;;;;29.07;19.20;;;;;;;16.95;44.07;100911.79;1857923;77;20862;-80
2021/10/23 10:24:25;;;;;;;35.10;19.32;;;;;;;17.01;43.90;100903.34;1858807;77;20947;-80
2021/10/23 10:27:10;;;;;;;34.23;15.15;;;;;;;17.05;43.80;100899.48;1861327;77;21128;-79
2021/10/23 10:29:43;;;;;;;23.73;13.20;;;;;;;17.09;43.60;100904.02;1859979;77;20913;-79
2021/10/23 10:32:25;;;;;;;19.50;11.22;;;;;;;17.07;43.56;100913.91;1861456;77;20873;-78
2021/10/23 10:35:13;;;;;;;17.00;9.50;;;;;;;17.06;43.47;100922.83;1861769;77;20881;-78
2021/10/23 10:42:43;;;;;;;16.30;10.03;;;;;;;17.01;43.44;100909.97;1861531;77;21423;-77
2021/10/23 10:42:58;;;;;;;16.25;9.15;;;;;;;17.01;43.13;100907.77;1840847;77;20956;-78
2021/10/23 10:45:47;;;;;;;17.50;8.60;;;;;;;16.98;43.16;100917.69;1861384;77;21565;-78
2021/10/23 10:48:18;;;;;;;18.35;11.68;;;;;;;16.96;43.27;100925.37;1797820;79;20981;-78
2021/10/23 10:50:50;;;;;;;19.45;11.20;;;;;;;16.93;43.30;100942.86;1799015;79;20873;-77
2021/10/23 10:53:29;;;;;;;20.75;11.43;;;;;;;16.91;43.34;100933.70;1798989;79;21651;-75
2021/10/23 10:56:07;;;;;;;21.87;13.68;;;;;;;16.88;43.42;100932.64;1798107;79;20991;-76
2021/10/23 10:58:55;;;;;;;26.70;13.22;;;;;;;16.89;43.53;100949.37;1797781;79;20940;-76
2021/10/23 11:01:31;;;;;;;23.85;14.87;;;;;;;16.88;43.82;100944.56;1798092;79;21417;-76
2021/10/23 11:04:05;;;;;;;21.52;13.55;;;;;;;16.87;43.96;100944.67;1798025;79;21449;-77
2021/10/23 11:06:42;;;;;;;22.50;11.45;;;;;;;16.86;43.74;100937.71;1798126;79;21509;-77
2021/10/23 11:09:15;;;;;;;23.10;11.30;;;;;;;16.81;43.43;100938.55;1797703;79;20987;-78
2021/10/23 11:11:50;;;;;;;24.47;12.35;;;;;;;16.74;43.17;100932.88;1798170;79;20995;-77
2021/10/23 11:14:34;;;;;;;22.35;12.20;;;;;;;16.60;44.00;100949.05;1798033;79;21520;-78
2021/10/23 11:17:14;;;;;;;23.12;12.75;;;;;;;16.60;44.00;100949.05;1798148;79;20916;-79
2021/10/23 11:19:57;;;;;;;26.17;13.75;;;;;;;16.57;44.27;100953.62;1798352;79;21414;-80
2021/10/23 11:22:31;;;;;;;27.10;13.75;;;;;;;16.57;44.49;100954.95;1798315;79;20967;-78
2021/10/23 11:25:11;;;;;;;22.10;12.68;;;;;;;16.57;44.65;100957.59;1836604;77;21023;-79